createdAt,value
2018-07-30T00:00:38.949Z,9.27
2018-07-30T00:03:08.789Z,9.33
2018-07-30T00:05:38.182Z,10.37
2018-07-30T00:08:07.186Z,9.10
2018-07-30T00:10:36.294Z,10.37
2018-07-30T00:13:05.413Z,9.97
2018-07-30T00:15:35.031Z,11.87
2018-07-30T00:18:04.193Z,9.30
2018-07-30T00:20:33.326Z,10.87
2018-07-30T00:23:02.861Z,9.33
2018-07-30T00:25:32.221Z,9.40
2018-07-30T00:28:01.318Z,9.47
2018-07-30T00:30:30.433Z,9.33
2018-07-30T00:33:00.322Z,10.40
2018-07-30T00:35:29.439Z,9.97
2018-07-30T00:37:59.131Z,10.20
2018-07-30T00:40:28.394Z,11.17
2018-07-30T00:42:57.550Z,11.70
2018-07-30T00:45:26.697Z,8.93
2018-07-30T00:47:56.742Z,9.97
2018-07-30T00:50:25.890Z,10.70
2018-07-30T00:52:54.994Z,9.67
2018-07-30T00:55:24.086Z,10.10
2018-07-30T00:57:53.979Z,10.00
2018-07-30T01:00:23.314Z,10.20
2018-07-30T01:02:52.530Z,10.10
2018-07-30T01:05:21.685Z,10.80
2018-07-30T01:07:50.926Z,10.53
2018-07-30T01:10:20.058Z,11.10
2018-07-30T01:12:49.222Z,9.77
2018-07-30T01:15:18.370Z,11.23
2018-07-30T01:17:54.084Z,11.40
2018-07-30T01:20:23.220Z,11.17
2018-07-30T01:22:53.133Z,10.93
2018-07-30T01:25:22.425Z,11.40
2018-07-30T01:27:51.610Z,10.23
2018-07-30T01:30:21.154Z,10.67
2018-07-30T01:32:50.315Z,10.20
2018-07-30T01:35:19.406Z,11.73
2018-07-30T01:37:48.558Z,10.17
2018-07-30T01:40:17.858Z,10.50
2018-07-30T01:42:48.672Z,10.47
2018-07-30T01:45:17.828Z,10.80
2018-07-30T01:47:46.939Z,10.07
2018-07-30T01:50:16.076Z,11.57
2018-07-30T01:52:45.570Z,10.20
2018-07-30T01:55:14.661Z,10.70
2018-07-30T01:57:43.762Z,10.37
2018-07-30T02:00:15.325Z,10.90
2018-07-30T02:02:47.948Z,10.40
2018-07-30T02:05:18.061Z,9.73
2018-07-30T02:07:47.870Z,9.93
2018-07-30T02:10:19.069Z,10.20
2018-07-30T02:12:50.024Z,9.87
2018-07-30T02:15:19.697Z,11.40
2018-07-30T02:17:49.626Z,11.50
2018-07-30T02:20:19.126Z,10.47
2018-07-30T02:22:48.652Z,10.40
2018-07-30T02:25:17.760Z,10.30
2018-07-30T02:27:46.867Z,9.77
2018-07-30T02:30:16.001Z,9.23
2018-07-30T02:32:45.093Z,10.87
2018-07-30T02:35:14.858Z,11.43
2018-07-30T02:37:43.993Z,10.90
2018-07-30T02:40:13.927Z,11.33
2018-07-30T02:42:43.031Z,10.73
2018-07-30T02:45:12.138Z,11.57
2018-07-30T02:47:41.241Z,10.43
2018-07-30T02:50:10.377Z,12.20
2018-07-30T02:52:39.475Z,11.37
2018-07-30T02:55:09.334Z,12.90
2018-07-30T02:57:38.524Z,11.37
2018-07-30T03:00:08.740Z,11.07
2018-07-30T03:02:38.242Z,10.77
2018-07-30T03:05:08.101Z,11.87
2018-07-30T03:07:37.430Z,13.53
2018-07-30T03:10:07.233Z,11.30
2018-07-30T03:12:36.541Z,11.80
2018-07-30T03:15:06.185Z,13.40
2018-07-30T03:17:35.921Z,10.70
2018-07-30T03:20:05.530Z,11.20
2018-07-30T03:22:35.129Z,11.77
2018-07-30T03:25:06.300Z,12.13
2018-07-30T03:27:35.822Z,12.73
2018-07-30T03:30:08.099Z,11.60
2018-07-30T03:32:37.291Z,12.20
2018-07-30T03:35:07.142Z,12.30
2018-07-30T03:37:36.258Z,11.57
2018-07-30T03:40:06.633Z,12.60
2018-07-30T03:42:36.557Z,12.00
2018-07-30T03:45:08.854Z,12.27
2018-07-30T03:47:38.017Z,12.43
2018-07-30T03:50:07.349Z,12.03
2018-07-30T03:52:36.457Z,11.30
2018-07-30T03:55:06.254Z,12.63
2018-07-30T03:57:35.357Z,10.70
2018-07-30T04:00:07.449Z,11.73
2018-07-30T04:02:36.532Z,12.03
2018-07-30T04:05:05.830Z,11.00
2018-07-30T04:07:35.332Z,12.93
2018-07-30T04:10:05.905Z,11.43
2018-07-30T04:12:35.512Z,11.10
2018-07-30T04:15:05.065Z,10.97
2018-07-30T04:17:34.182Z,11.03
2018-07-30T04:20:03.630Z,11.30
2018-07-30T04:22:32.737Z,12.57
2018-07-30T04:25:01.905Z,12.43
2018-07-30T04:27:30.997Z,13.43
2018-07-30T04:30:00.298Z,12.33
2018-07-30T04:32:29.517Z,11.10
2018-07-30T04:34:58.649Z,11.20
2018-07-30T04:37:27.769Z,12.33
2018-07-30T04:39:57.325Z,12.37
2018-07-30T04:42:26.670Z,11.10
2018-07-30T04:44:55.778Z,13.43
2018-07-30T04:47:24.906Z,12.07
2018-07-30T04:49:54.002Z,12.07
2018-07-30T04:52:23.103Z,11.53
2018-07-30T04:54:52.857Z,10.67
2018-07-30T04:57:21.981Z,10.97
2018-07-30T04:59:51.077Z,10.47
2018-07-30T05:02:20.225Z,10.00
2018-07-30T05:04:50.197Z,10.87
2018-07-30T05:07:20.409Z,10.90
2018-07-30T05:09:49.533Z,11.73
2018-07-30T05:12:18.637Z,10.13
2018-07-30T05:14:48.533Z,10.60
2018-07-30T05:17:18.101Z,10.33
2018-07-30T05:19:46.929Z,10.67
2018-07-30T05:22:16.218Z,9.40
2018-07-30T05:24:45.446Z,10.13
2018-07-30T05:27:14.714Z,11.00
2018-07-30T05:29:45.580Z,10.50
2018-07-30T05:32:15.967Z,10.23
2018-07-30T05:34:45.881Z,10.10
2018-07-30T05:37:16.178Z,10.70
2018-07-30T05:39:45.285Z,10.87
2018-07-30T05:42:14.746Z,10.20
2018-07-30T05:44:45.010Z,9.67
2018-07-30T05:47:14.541Z,9.97
2018-07-30T05:49:43.649Z,9.97
2018-07-30T05:52:12.853Z,10.30
2018-07-30T05:54:42.794Z,10.90
2018-07-30T05:57:11.894Z,10.43
2018-07-30T05:59:41.035Z,10.37
2018-07-30T06:02:11.070Z,9.70
2018-07-30T06:04:40.825Z,9.13
2018-07-30T06:07:09.123Z,9.43
2018-07-30T06:09:39.437Z,10.60
2018-07-30T06:12:08.909Z,9.60
2018-07-30T06:14:37.246Z,9.97
2018-07-30T06:17:06.397Z,10.33
2018-07-30T06:19:35.560Z,9.50
2018-07-30T06:22:05.274Z,9.73
2018-07-30T06:24:35.294Z,10.90
2018-07-30T06:27:04.617Z,9.60
2018-07-30T06:29:34.013Z,9.70
2018-07-30T06:32:03.272Z,9.13
2018-07-30T06:34:32.590Z,10.33
2018-07-30T06:37:02.269Z,8.67
2018-07-30T06:39:31.362Z,9.20
2018-07-30T06:42:00.535Z,10.37
2018-07-30T06:44:29.639Z,9.77
2018-07-30T06:46:58.749Z,10.37
2018-07-30T06:49:27.929Z,9.67
2018-07-30T06:51:57.105Z,10.43
2018-07-30T06:54:26.211Z,9.40
2018-07-30T06:56:55.330Z,10.33
2018-07-30T06:59:24.859Z,10.93
2018-07-30T07:01:54.044Z,10.70
2018-07-30T07:04:23.154Z,9.90
2018-07-30T07:06:52.237Z,10.00
2018-07-30T07:09:21.597Z,10.30
2018-07-30T07:11:50.978Z,9.60
2018-07-30T07:14:20.086Z,11.40
2018-07-30T07:16:49.255Z,10.00
2018-07-30T07:19:18.357Z,10.50
2018-07-30T07:21:47.877Z,12.03
2018-07-30T07:24:16.958Z,10.00
2018-07-30T07:26:46.078Z,10.60
2018-07-30T07:29:15.197Z,11.03
2018-07-30T07:31:44.313Z,9.40
2018-07-30T07:34:13.450Z,10.47
2018-07-30T07:36:43.338Z,10.60
2018-07-30T07:39:13.314Z,11.37
2018-07-30T07:41:42.853Z,10.93
2018-07-30T07:44:12.134Z,10.20
2018-07-30T07:46:41.286Z,10.63
2018-07-30T07:49:10.398Z,11.70
2018-07-30T07:51:39.544Z,11.43
2018-07-30T07:54:09.193Z,10.33
2018-07-30T07:56:38.301Z,10.60
2018-07-30T07:59:07.751Z,10.60
2018-07-30T08:01:36.957Z,10.17
2018-07-30T08:04:06.101Z,10.30
2018-07-30T08:06:35.222Z,10.30
2018-07-30T08:09:07.806Z,9.63
2018-07-30T08:11:37.574Z,10.13
2018-07-30T08:14:06.846Z,10.40
2018-07-30T08:16:36.008Z,11.00
2018-07-30T08:19:05.155Z,10.53
2018-07-30T08:21:34.343Z,10.73
2018-07-30T08:24:03.746Z,9.80
2018-07-30T08:26:33.238Z,10.27
2018-07-30T08:29:02.459Z,9.80
2018-07-30T08:31:31.778Z,10.60
2018-07-30T08:34:00.909Z,9.50
2018-07-30T08:36:30.021Z,9.60
2018-07-30T08:38:59.169Z,10.70
2018-07-30T08:41:28.303Z,9.97
2018-07-30T08:43:57.852Z,10.70
2018-07-30T08:46:27.297Z,9.97
2018-07-30T08:48:56.528Z,8.60
2018-07-30T08:51:25.890Z,8.90
2018-07-30T08:53:55.053Z,8.90
2018-07-30T08:56:25.018Z,9.23
2018-07-30T08:58:54.458Z,8.47
2018-07-30T09:01:23.973Z,9.10
2018-07-30T09:03:53.297Z,8.50
2018-07-30T09:06:22.433Z,8.27
2018-07-30T09:08:51.606Z,8.47
2018-07-30T09:11:21.380Z,8.77
2018-07-30T09:13:51.225Z,9.80
2018-07-30T09:16:20.455Z,8.37
2018-07-30T09:18:49.257Z,9.43
2018-07-30T09:21:18.517Z,9.30
2018-07-30T09:23:47.702Z,9.57
2018-07-30T09:26:17.695Z,9.50
2018-07-30T09:28:48.069Z,9.17
2018-07-30T09:31:17.177Z,9.33
2018-07-30T09:33:46.578Z,9.20
2018-07-30T09:36:20.597Z,9.77
2018-07-30T09:38:50.585Z,9.20
2018-07-30T09:41:20.554Z,8.53
2018-07-30T09:43:49.887Z,9.27
2018-07-30T09:46:19.653Z,8.53
2018-07-30T09:48:49.383Z,9.70
2018-07-30T09:51:19.401Z,8.33
2018-07-30T09:53:49.293Z,8.17
2018-07-30T09:56:19.387Z,10.63
2018-07-30T09:58:49.056Z,8.07
2018-07-30T10:01:25.038Z,9.00
2018-07-30T10:03:54.661Z,9.00
2018-07-30T10:06:24.513Z,8.60
2018-07-30T10:08:54.481Z,8.23
2018-07-30T10:11:23.884Z,8.40
2018-07-30T10:13:53.658Z,8.40
2018-07-30T10:16:23.380Z,7.70
2018-07-30T10:18:53.154Z,7.17
2018-07-30T10:21:22.294Z,7.40
2018-07-30T10:23:53.298Z,7.70
2018-07-30T10:26:24.401Z,8.50
2018-07-30T10:28:53.546Z,7.57
2018-07-30T10:31:23.046Z,7.60
2018-07-30T10:33:53.517Z,7.47
2018-07-30T10:36:22.560Z,6.90
2018-07-30T10:38:51.655Z,8.23
2018-07-30T10:41:20.765Z,7.60
2018-07-30T10:43:49.954Z,7.67
2018-07-30T10:46:19.079Z,7.67
2018-07-30T10:48:48.206Z,7.30
2018-07-30T10:51:17.297Z,7.43
2018-07-30T10:53:46.448Z,7.13
2018-07-30T10:56:15.575Z,7.67
2018-07-30T10:58:44.653Z,6.97
2018-07-30T11:01:13.866Z,7.03
2018-07-30T11:03:42.978Z,7.97
2018-07-30T11:06:12.066Z,7.80
2018-07-30T11:08:41.157Z,7.10
2018-07-30T11:11:10.281Z,7.73
2018-07-30T11:13:39.396Z,6.40
2018-07-30T11:16:08.673Z,7.70
2018-07-30T11:18:37.434Z,7.67
2018-07-30T11:21:06.881Z,7.63
2018-07-30T11:23:35.710Z,7.30
2018-07-30T11:26:04.972Z,7.20
2018-07-30T11:28:34.364Z,8.20
2018-07-30T11:31:03.398Z,7.70
2018-07-30T11:33:32.526Z,7.60
2018-07-30T11:36:01.630Z,6.20
2018-07-30T11:38:30.610Z,6.60
2018-07-30T11:40:59.374Z,6.70
2018-07-30T11:43:28.532Z,7.30
2018-07-30T11:45:57.678Z,7.07
2018-07-30T11:48:26.825Z,7.43
2018-07-30T11:50:55.980Z,7.73
2018-07-30T11:53:25.145Z,6.70
2018-07-30T11:55:54.237Z,7.20
2018-07-30T11:58:23.370Z,7.70
2018-07-30T12:00:52.528Z,7.53
2018-07-30T12:03:21.632Z,7.23
2018-07-30T12:05:50.749Z,7.50
2018-07-30T12:08:19.928Z,6.83
2018-07-30T12:10:49.021Z,6.47
2018-07-30T12:13:18.122Z,7.40
2018-07-30T12:15:47.413Z,7.60
2018-07-30T12:18:16.702Z,7.50
2018-07-30T12:20:45.982Z,7.30
2018-07-30T12:23:15.315Z,7.40
2018-07-30T12:25:44.904Z,7.27
2018-07-30T12:28:13.988Z,7.60
2018-07-30T12:30:43.458Z,7.40
2018-07-30T12:33:12.213Z,8.07
2018-07-30T12:35:41.656Z,7.80
2018-07-30T12:38:11.801Z,7.83
2018-07-30T12:40:40.717Z,7.93
2018-07-30T12:43:09.866Z,6.97
2018-07-30T12:45:44.289Z,7.40
2018-07-30T12:48:13.513Z,7.83
2018-07-30T12:50:42.614Z,7.73
2018-07-30T12:53:11.729Z,8.07
2018-07-30T12:55:40.834Z,7.57
2018-07-30T12:58:10.119Z,7.27
2018-07-30T13:00:39.242Z,7.80
2018-07-30T13:03:08.400Z,8.23
2018-07-30T13:05:37.856Z,8.07
2018-07-30T13:08:07.318Z,7.57
2018-07-30T13:10:36.434Z,8.00
2018-07-30T13:13:05.595Z,7.77
2018-07-30T13:15:34.774Z,7.50
2018-07-30T13:18:04.058Z,7.67
2018-07-30T13:20:33.876Z,8.03
2018-07-30T13:23:03.133Z,8.03
2018-07-30T13:25:32.885Z,7.47
2018-07-30T13:28:02.726Z,7.00
2018-07-30T13:30:30.413Z,7.70
2018-07-30T13:33:00.114Z,7.50
2018-07-30T13:35:29.481Z,8.00
2018-07-30T13:37:58.597Z,7.80
2018-07-30T13:40:27.721Z,9.07
2018-07-30T13:42:56.866Z,7.30
2018-07-30T13:45:26.723Z,7.63
2018-07-30T13:47:55.858Z,8.27
2018-07-30T13:50:24.994Z,8.63
2018-07-30T13:52:54.169Z,7.70
2018-07-30T13:55:23.289Z,8.03
2018-07-30T13:57:52.418Z,8.17
2018-07-30T14:00:21.961Z,7.87
2018-07-30T14:02:51.149Z,8.13
2018-07-30T14:05:20.280Z,7.70
2018-07-30T14:07:49.430Z,7.77
2018-07-30T14:10:21.597Z,7.53
2018-07-30T14:12:50.793Z,8.17
2018-07-30T14:15:19.850Z,6.77
2018-07-30T14:17:49.698Z,7.60
2018-07-30T14:20:19.046Z,7.60
2018-07-30T14:22:48.129Z,7.50
2018-07-30T14:25:17.317Z,7.80
2018-07-30T14:27:46.708Z,8.77
2018-07-30T14:30:16.126Z,7.70
2018-07-30T14:32:45.229Z,8.40
2018-07-30T14:35:14.391Z,7.73
2018-07-30T14:37:44.437Z,7.77
2018-07-30T14:40:13.990Z,8.70
2018-07-30T14:42:43.426Z,7.53
2018-07-30T14:45:12.241Z,7.80
2018-07-30T14:47:41.381Z,7.93
2018-07-30T14:50:10.917Z,7.90
2018-07-30T14:52:40.087Z,7.50
2018-07-30T14:55:09.514Z,8.63
2018-07-30T14:57:38.624Z,7.47
2018-07-30T15:00:10.169Z,8.43
2018-07-30T15:02:39.449Z,8.20
2018-07-30T15:05:08.922Z,7.10
2018-07-30T15:07:38.258Z,7.93
2018-07-30T15:10:07.358Z,7.60
2018-07-30T15:12:37.015Z,7.47
2018-07-30T15:15:06.135Z,9.23
2018-07-30T15:17:35.477Z,8.13
2018-07-30T15:20:05.877Z,8.50
2018-07-30T15:22:34.766Z,8.00
2018-07-30T15:25:03.972Z,10.60
2018-07-30T15:27:33.549Z,7.50
2018-07-30T15:30:03.139Z,7.93
2018-07-30T15:32:32.425Z,8.53
2018-07-30T15:35:01.626Z,7.70
2018-07-30T15:37:30.766Z,7.83
2018-07-30T15:39:59.990Z,9.10
2018-07-30T15:42:29.189Z,8.77
2018-07-30T15:44:58.329Z,8.10
2018-07-30T15:47:27.533Z,8.53
2018-07-30T15:49:56.694Z,8.23
2018-07-30T15:52:25.818Z,8.47
2018-07-30T15:54:55.211Z,7.40
2018-07-30T15:57:24.279Z,7.30
2018-07-30T15:59:53.400Z,7.10
2018-07-30T16:02:22.605Z,8.57
2018-07-30T16:04:52.416Z,8.23
2018-07-30T16:07:21.542Z,7.83
2018-07-30T16:09:50.661Z,7.23
2018-07-30T16:12:19.799Z,8.33
2018-07-30T16:14:49.306Z,8.40
2018-07-30T16:17:18.438Z,9.27
2018-07-30T16:19:48.583Z,7.93
2018-07-30T16:22:18.638Z,8.07
2018-07-30T16:24:48.117Z,7.23
2018-07-30T16:27:17.757Z,7.43
2018-07-30T16:29:46.874Z,7.90
2018-07-30T16:32:16.042Z,7.43
2018-07-30T16:34:44.964Z,9.63
2018-07-30T16:37:14.129Z,11.77
2018-07-30T16:39:43.353Z,7.93
2018-07-30T16:42:12.599Z,9.03
2018-07-30T16:44:41.765Z,7.67
2018-07-30T16:47:11.431Z,6.90
2018-07-30T16:49:40.661Z,8.20
2018-07-30T16:52:10.906Z,8.00
2018-07-30T16:54:40.046Z,7.50
2018-07-30T16:57:09.184Z,8.60
2018-07-30T16:59:38.322Z,7.47
2018-07-30T17:02:07.520Z,7.80
2018-07-30T17:04:36.619Z,7.70
2018-07-30T17:07:06.478Z,7.17
2018-07-30T17:09:35.609Z,8.53
2018-07-30T17:12:04.738Z,8.57
2018-07-30T17:14:33.837Z,7.57
2018-07-30T17:17:02.970Z,7.53
2018-07-30T17:19:32.084Z,7.53
2018-07-30T17:22:01.183Z,8.00
2018-07-30T17:24:30.298Z,7.40
2018-07-30T17:26:59.604Z,8.13
2018-07-30T17:29:28.717Z,7.57
2018-07-30T17:31:57.917Z,7.77
2018-07-30T17:34:27.135Z,8.60
2018-07-30T17:36:56.473Z,8.13
2018-07-30T17:39:25.602Z,8.27
2018-07-30T17:41:54.745Z,7.70
2018-07-30T17:44:23.878Z,9.60
2018-07-30T17:46:53.597Z,8.53
2018-07-30T17:49:22.748Z,9.13
2018-07-30T17:51:51.861Z,8.07
2018-07-30T17:54:21.797Z,8.63
2018-07-30T17:56:50.946Z,6.80
2018-07-30T17:59:20.061Z,8.13
2018-07-30T18:01:49.225Z,7.97
2018-07-30T18:04:18.152Z,8.20
2018-07-30T18:06:47.272Z,9.13
2018-07-30T18:09:17.211Z,8.37
2018-07-30T18:11:46.358Z,9.33
2018-07-30T18:14:15.475Z,8.23
2018-07-30T18:16:44.756Z,7.80
2018-07-30T18:19:13.921Z,7.43
2018-07-30T18:21:43.050Z,10.10
2018-07-30T18:24:11.801Z,8.63
2018-07-30T18:26:41.752Z,8.27
2018-07-30T18:29:10.882Z,8.80
2018-07-30T18:31:40.814Z,8.60
2018-07-30T18:34:09.946Z,9.87
2018-07-30T18:36:40.041Z,9.37
2018-07-30T18:39:09.570Z,8.73
2018-07-30T18:41:38.722Z,9.00
2018-07-30T18:44:07.881Z,9.37
2018-07-30T18:46:36.981Z,8.83
2018-07-30T18:49:06.565Z,8.20
2018-07-30T18:51:36.579Z,9.23
2018-07-30T18:54:06.116Z,9.53
2018-07-30T18:56:35.416Z,8.93
2018-07-30T18:59:04.845Z,8.60
2018-07-30T19:01:34.024Z,9.83
2018-07-30T19:04:03.729Z,9.30
2018-07-30T19:06:32.909Z,8.03
2018-07-30T19:09:02.170Z,8.83
2018-07-30T19:11:31.414Z,8.70
2018-07-30T19:14:00.571Z,8.40
2018-07-30T19:16:29.670Z,8.73
2018-07-30T19:18:58.809Z,9.03
2018-07-30T19:21:27.921Z,10.53
2018-07-30T19:23:57.506Z,9.60
2018-07-30T19:26:26.842Z,11.30
2018-07-30T19:28:56.062Z,10.43
2018-07-30T19:31:25.215Z,10.87
2018-07-30T19:33:54.609Z,9.87
2018-07-30T19:36:24.012Z,9.60
2018-07-30T19:38:53.190Z,8.87
2018-07-30T19:41:22.473Z,9.30
2018-07-30T19:43:54.085Z,8.67
2018-07-30T19:46:23.346Z,10.10
2018-07-30T19:48:52.496Z,9.10
2018-07-30T19:51:21.633Z,8.83
2018-07-30T19:53:50.746Z,8.33
2018-07-30T19:56:20.233Z,8.83
2018-07-30T19:58:49.117Z,8.10
2018-07-30T20:01:18.304Z,8.10
2018-07-30T20:03:47.485Z,8.20
2018-07-30T20:06:17.950Z,8.37
2018-07-30T20:08:47.368Z,8.60
2018-07-30T20:11:16.492Z,8.40
2018-07-30T20:13:45.989Z,9.30
2018-07-30T20:16:15.113Z,9.30
2018-07-30T20:18:45.378Z,8.40
2018-07-30T20:21:14.607Z,8.50
2018-07-30T20:23:43.465Z,8.50
2018-07-30T20:26:12.798Z,8.87
2018-07-30T20:28:42.081Z,7.80
2018-07-30T20:31:13.903Z,8.90
2018-07-30T20:33:43.233Z,8.80
2018-07-30T20:36:12.523Z,8.20
2018-07-30T20:38:41.814Z,7.83
2018-07-30T20:41:10.534Z,9.10
2018-07-30T20:43:39.646Z,8.50
2018-07-30T20:46:08.829Z,8.47
2018-07-30T20:48:37.965Z,8.47
2018-07-30T20:51:07.093Z,9.20
2018-07-30T20:53:36.261Z,9.13
2018-07-30T20:56:05.366Z,9.83
2018-07-30T20:58:34.517Z,9.30
2018-07-30T21:01:03.681Z,9.50
2018-07-30T21:03:32.967Z,11.20
2018-07-30T21:06:02.126Z,9.43
2018-07-30T21:08:31.247Z,9.50
2018-07-30T21:11:00.378Z,10.47
2018-07-30T21:13:29.421Z,8.73
2018-07-30T21:15:58.574Z,8.90
2018-07-30T21:18:27.683Z,9.40
2018-07-30T21:20:56.877Z,9.53
2018-07-30T21:23:26.005Z,11.40
2018-07-30T21:25:55.102Z,9.63
2018-07-30T21:28:24.314Z,11.67
2018-07-30T21:30:53.935Z,9.93
2018-07-30T21:33:23.800Z,9.57
2018-07-30T21:35:55.046Z,10.83
2018-07-30T21:38:24.174Z,9.70
2018-07-30T21:40:53.453Z,8.90
2018-07-30T21:43:22.697Z,9.30
2018-07-30T21:45:51.845Z,10.07
2018-07-30T21:48:20.935Z,9.57
2018-07-30T21:50:50.104Z,10.70
2018-07-30T21:53:19.288Z,10.27
2018-07-30T21:55:48.377Z,21.70
2018-07-30T21:58:17.973Z,13.60
2018-07-30T22:00:52.314Z,9.17
2018-07-30T22:03:21.484Z,10.20
2018-07-30T22:05:55.815Z,10.47
2018-07-30T22:08:25.304Z,11.67
2018-07-30T22:10:54.467Z,10.57
2018-07-30T22:13:24.249Z,10.83
2018-07-30T22:15:53.405Z,10.70
2018-07-30T22:18:23.009Z,11.73
2018-07-30T22:20:52.678Z,10.37
2018-07-30T22:23:21.809Z,11.53
2018-07-30T22:25:50.918Z,10.77
2018-07-30T22:28:20.321Z,10.57
2018-07-30T22:30:49.070Z,10.40
2018-07-30T22:33:18.393Z,11.00
2018-07-30T22:35:47.525Z,10.50
2018-07-30T22:38:16.637Z,10.00
2018-07-30T22:40:45.725Z,11.03
2018-07-30T22:43:14.837Z,10.50
2018-07-30T22:45:43.917Z,10.40
2018-07-30T22:48:13.137Z,10.57
2018-07-30T22:50:42.501Z,10.23
2018-07-30T22:53:12.268Z,10.87
2018-07-30T22:55:41.942Z,9.83
2018-07-30T22:58:11.197Z,11.00
2018-07-30T23:00:40.718Z,11.43
2018-07-30T23:03:09.815Z,10.43
2018-07-30T23:05:38.953Z,10.53
2018-07-30T23:08:08.321Z,12.03
2018-07-30T23:10:37.432Z,10.67
2018-07-30T23:13:06.699Z,10.77
2018-07-30T23:15:36.309Z,10.40
2018-07-30T23:18:05.458Z,11.73
2018-07-30T23:20:34.600Z,10.60
2018-07-30T23:23:09.877Z,10.60
2018-07-30T23:25:39.321Z,11.70
2018-07-30T23:28:08.434Z,11.60
2018-07-30T23:30:37.290Z,10.97
2018-07-30T23:33:06.574Z,11.07
2018-07-30T23:35:35.706Z,11.23
2018-07-30T23:38:04.801Z,12.10
2018-07-30T23:40:33.934Z,11.47
2018-07-30T23:43:03.037Z,11.60
2018-07-30T23:45:33.094Z,12.27
2018-07-30T23:48:02.273Z,12.40
2018-07-30T23:50:31.380Z,10.97
2018-07-30T23:53:00.569Z,11.73
2018-07-30T23:55:30.029Z,10.17
2018-07-30T23:58:00.002Z,11.70
